This is the latest recevied weather packets stored in our database for station/object HK2LS-SM. If no packets are shown the sender has not sent any weather packets the latest 10 day(s).
| Time | Temp. | Humidity | Pressure | Rain* | Wind** | Luminosity | Snow |
|---|---|---|---|---|---|---|---|
| 1777573759 | 32.78° C | 63% | 1004.7 hPa | 0 mm | - | - | - |
| 1777565798 | 34.44° C | 58% | 1006.4 hPa | 0 mm | - | - | - |
| 1777564895 | 33.33° C | 60% | 1006.4 hPa | 0 mm | - | - | - |
| 1777564293 | 33.33° C | 60% | 1006.4 hPa | 0 mm | - | - | - |
| 1777563992 | 33.33° C | 60% | 1006.4 hPa | 0 mm | - | - | - |
| 1777563326 | 33.33° C | 61% | 1006.4 hPa | 0 mm | - | - | - |
| 1777559979 | 32.22° C | 64% | 1006.8 hPa | 0 mm | - | - | - |
| 1777559678 | 32.22° C | 63% | 1006.8 hPa | 0 mm | - | - | - |
| 1777555937 | 30° C | 70% | 1006.4 hPa | 0 mm | - | - | - |
| 1777552561 | 28.89° C | 73% | 1006.1 hPa | 0 mm | - | - | - |
| 1777551958 | 28.33° C | 74% | 1006.1 hPa | 0 mm | - | - | - |
| 1777551356 | 28.33° C | 75% | 1006.1 hPa | 0 mm | - | - | - |
| 1777550421 | 27.78° C | 75% | 1006.1 hPa | 0 mm | - | - | - |
| 1777541663 | 28.33° C | 74% | 1004.7 hPa | 0 mm | - | - | - |
| 1777541362 | 28.33° C | 74% | 1004.4 hPa | 0 mm | - | - | - |
| 1777540760 | 28.33° C | 73% | 1004.4 hPa | 0 mm | - | - | - |
| 1777540158 | 28.33° C | 73% | 1004.4 hPa | 0 mm | - | - | - |
| 1777539556 | 28.33° C | 73% | 1004.4 hPa | 0 mm | - | - | - |
| 1777539255 | 28.33° C | 73% | 1004.4 hPa | 0 mm | - | - | - |
| 1777538290 | 28.33° C | 73% | 1004.4 hPa | 0 mm | - | - | - |
| 1777537366 | 28.33° C | 74% | 1004.4 hPa | 0 mm | - | - | - |
| 1777537065 | 28.33° C | 74% | 1004.4 hPa | 0 mm | - | - | - |
| 1777535861 | 28.33° C | 73% | 1004.4 hPa | 0 mm | - | - | - |
| 1777534026 | 28.89° C | 73% | 1004.4 hPa | 0 mm | - | - | - |
| 1777533725 | 28.89° C | 73% | 1004.4 hPa | 0 mm | - | - | - |
* Rain latest hour (hover to see other rain measurements)
** Current wind speed in m/s (hover to see current wind gust speed)